Japan Airlines Virtual Airport Information Service

Kikai Airport

ICAO: RJKI Country: Japan
Latitude: 28.3213 Longitude: 129.928
Latest Arrival : JAC3781 (RJFK-RJKI) Latest Departure : JAC3832 (RJKI-RJKA)


WX CaptureLIVE
Data provided by noaa.gov | Fetched at 13:55:39

METAR : RJKI 281300Z AUTO 31023KT 9999 FEW042 SCT046 BKN050 16/09 Q1017

TAF :


Runway Data for RJKI
Data provided by openaviationdata.com

Runway ID Mag Var Hdg Length Elevation Surface ILS Freq ILS Id ILS Slope
7 -5 69° 3936 ft 15 ft Asphalt -- -- --
25 -5 249° 3936 ft 15 ft Asphalt -- -- --

Kikai Airport, Japan
Use only for reference purposes



Not for navigational purposes.